Terminal Aerodrome Forecast
Issued by NWS Charleston, WV

Current Version | Previous Version | Graphics & Text | Print | Product List | Glossary On
Versions: 1 2 3 4 5 6 7 8 9 10 11 12 13 14 15 16 17 18 19 20 21 22 23 24 25 26 27
648
FTUS41 KRLX 230521
TAFHTS
TAF
KHTS 230521Z 2306/2406 12003KT P6SM BKN035 OVC050
     FM231100 19005KT P6SM OVC035
     FM231500 21009KT 6SM SHRA VCTS OVC035CB
     FM232000 22011KT 4SM SHRA VCTS OVC045CB=

USA.gov is the U.S. government's official web portal to all federal, state and local government web resources and services.